sensor_id;sensor_type;location;lat;lon;timestamp;P1;durP1;ratioP1;P2;durP2;ratioP2
24425;SDS011;12611;44.446;26.000;2023-03-14T00:02:06;11.00;;;5.70;;
24425;SDS011;12611;44.446;26.000;2023-03-14T00:04:35;13.23;;;5.67;;
24425;SDS011;12611;44.446;26.000;2023-03-14T00:07:03;11.77;;;5.20;;
24425;SDS011;12611;44.446;26.000;2023-03-14T00:09:32;11.27;;;5.07;;
24425;SDS011;12611;44.446;26.000;2023-03-14T00:12:00;11.47;;;5.93;;
24425;SDS011;12611;44.446;26.000;2023-03-14T00:14:31;7.73;;;4.57;;
24425;SDS011;12611;44.446;26.000;2023-03-14T00:16:59;8.43;;;5.00;;
24425;SDS011;12611;44.446;26.000;2023-03-14T00:19:27;10.53;;;4.80;;
24425;SDS011;12611;44.446;26.000;2023-03-14T00:21:56;10.20;;;5.07;;
24425;SDS011;12611;44.446;26.000;2023-03-14T00:24:24;8.23;;;4.67;;
24425;SDS011;12611;44.446;26.000;2023-03-14T00:26:52;9.03;;;4.77;;
24425;SDS011;12611;44.446;26.000;2023-03-14T00:29:20;12.73;;;4.97;;
24425;SDS011;12611;44.446;26.000;2023-03-14T00:31:50;11.00;;;4.80;;
24425;SDS011;12611;44.446;26.000;2023-03-14T00:34:20;9.67;;;4.60;;
24425;SDS011;12611;44.446;26.000;2023-03-14T00:36:48;8.70;;;4.60;;
24425;SDS011;12611;44.446;26.000;2023-03-14T00:39:16;9.10;;;4.70;;
24425;SDS011;12611;44.446;26.000;2023-03-14T00:41:44;9.47;;;5.27;;
24425;SDS011;12611;44.446;26.000;2023-03-14T00:44:13;8.83;;;4.43;;
24425;SDS011;12611;44.446;26.000;2023-03-14T00:46:42;12.13;;;5.03;;
24425;SDS011;12611;44.446;26.000;2023-03-14T00:49:12;8.87;;;4.30;;
24425;SDS011;12611;44.446;26.000;2023-03-14T00:51:40;9.07;;;4.60;;
24425;SDS011;12611;44.446;26.000;2023-03-14T00:54:08;10.43;;;4.63;;
24425;SDS011;12611;44.446;26.000;2023-03-14T00:56:36;8.77;;;4.70;;
24425;SDS011;12611;44.446;26.000;2023-03-14T00:59:05;9.70;;;4.77;;
24425;SDS011;12611;44.446;26.000;2023-03-14T01:01:33;9.20;;;4.80;;
24425;SDS011;12611;44.446;26.000;2023-03-14T01:04:01;11.90;;;4.90;;
24425;SDS011;12611;44.446;26.000;2023-03-14T01:06:31;6.93;;;3.97;;
24425;SDS011;12611;44.446;26.000;2023-03-14T01:09:00;7.17;;;4.13;;
24425;SDS011;12611;44.446;26.000;2023-03-14T01:11:30;8.57;;;4.87;;
24425;SDS011;12611;44.446;26.000;2023-03-14T01:14:00;9.07;;;4.97;;
24425;SDS011;12611;44.446;26.000;2023-03-14T01:16:30;9.43;;;4.60;;
24425;SDS011;12611;44.446;26.000;2023-03-14T01:19:00;11.40;;;4.20;;
24425;SDS011;12611;44.446;26.000;2023-03-14T01:21:29;10.27;;;4.20;;
24425;SDS011;12611;44.446;26.000;2023-03-14T01:24:01;7.37;;;4.10;;
24425;SDS011;12611;44.446;26.000;2023-03-14T01:26:32;10.13;;;4.43;;
24425;SDS011;12611;44.446;26.000;2023-03-14T01:29:01;8.83;;;4.70;;
24425;SDS011;12611;44.446;26.000;2023-03-14T01:31:30;8.83;;;4.50;;
24425;SDS011;12611;44.446;26.000;2023-03-14T01:33:59;8.87;;;4.40;;
24425;SDS011;12611;44.446;26.000;2023-03-14T01:36:27;7.13;;;3.50;;
24425;SDS011;12611;44.446;26.000;2023-03-14T01:38:58;9.37;;;3.57;;
24425;SDS011;12611;44.446;26.000;2023-03-14T01:41:26;7.13;;;4.27;;
24425;SDS011;12611;44.446;26.000;2023-03-14T01:43:55;7.60;;;3.50;;
24425;SDS011;12611;44.446;26.000;2023-03-14T01:46:24;10.90;;;4.67;;
24425;SDS011;12611;44.446;26.000;2023-03-14T01:49:01;10.00;;;4.33;;
24425;SDS011;12611;44.446;26.000;2023-03-14T01:51:36;9.27;;;4.43;;
24425;SDS011;12611;44.446;26.000;2023-03-14T01:54:12;7.97;;;4.00;;
24425;SDS011;12611;44.446;26.000;2023-03-14T01:56:44;8.37;;;3.80;;
24425;SDS011;12611;44.446;26.000;2023-03-14T01:59:17;10.17;;;4.57;;
24425;SDS011;12611;44.446;26.000;2023-03-14T02:01:46;8.13;;;4.30;;
24425;SDS011;12611;44.446;26.000;2023-03-14T02:04:16;8.90;;;4.33;;
24425;SDS011;12611;44.446;26.000;2023-03-14T02:06:50;7.83;;;4.73;;
24425;SDS011;12611;44.446;26.000;2023-03-14T02:09:24;10.97;;;4.50;;
24425;SDS011;12611;44.446;26.000;2023-03-14T02:11:52;9.00;;;4.77;;
24425;SDS011;12611;44.446;26.000;2023-03-14T02:14:24;8.33;;;4.30;;
24425;SDS011;12611;44.446;26.000;2023-03-14T02:16:57;8.37;;;4.40;;
24425;SDS011;12611;44.446;26.000;2023-03-14T02:19:29;9.83;;;4.30;;
24425;SDS011;12611;44.446;26.000;2023-03-14T02:22:07;8.10;;;4.33;;
24425;SDS011;12611;44.446;26.000;2023-03-14T02:24:40;9.40;;;4.40;;
24425;SDS011;12611;44.446;26.000;2023-03-14T02:27:16;11.50;;;4.67;;
24425;SDS011;12611;44.446;26.000;2023-03-14T02:29:47;8.80;;;4.40;;
24425;SDS011;12611;44.446;26.000;2023-03-14T02:32:19;9.00;;;4.63;;
24425;SDS011;12611;44.446;26.000;2023-03-14T02:34:49;11.77;;;4.40;;
24425;SDS011;12611;44.446;26.000;2023-03-14T02:37:20;9.50;;;4.47;;
24425;SDS011;12611;44.446;26.000;2023-03-14T02:39:50;10.95;;;4.97;;
24425;SDS011;12611;44.446;26.000;2023-03-14T02:42:20;14.57;;;5.33;;
24425;SDS011;12611;44.446;26.000;2023-03-14T02:44:51;9.43;;;4.00;;
24425;SDS011;12611;44.446;26.000;2023-03-14T02:47:26;9.50;;;3.93;;
24425;SDS011;12611;44.446;26.000;2023-03-14T02:49:58;10.30;;;5.13;;
24425;SDS011;12611;44.446;26.000;2023-03-14T02:52:30;7.53;;;3.90;;
24425;SDS011;12611;44.446;26.000;2023-03-14T02:54:58;12.43;;;4.57;;
24425;SDS011;12611;44.446;26.000;2023-03-14T02:57:28;7.13;;;3.97;;
24425;SDS011;12611;44.446;26.000;2023-03-14T02:59:57;9.93;;;4.63;;
24425;SDS011;12611;44.446;26.000;2023-03-14T03:02:26;8.07;;;5.00;;
24425;SDS011;12611;44.446;26.000;2023-03-14T03:04:54;10.00;;;4.60;;
24425;SDS011;12611;44.446;26.000;2023-03-14T03:07:23;8.80;;;4.80;;
24425;SDS011;12611;44.446;26.000;2023-03-14T03:09:51;10.53;;;5.00;;
24425;SDS011;12611;44.446;26.000;2023-03-14T03:12:19;14.63;;;5.10;;
24425;SDS011;12611;44.446;26.000;2023-03-14T03:14:49;11.17;;;5.63;;
24425;SDS011;12611;44.446;26.000;2023-03-14T03:17:17;9.10;;;5.33;;
24425;SDS011;12611;44.446;26.000;2023-03-14T03:19:46;11.40;;;5.40;;
24425;SDS011;12611;44.446;26.000;2023-03-14T03:22:14;11.47;;;5.23;;
24425;SDS011;12611;44.446;26.000;2023-03-14T03:24:42;15.67;;;6.13;;
24425;SDS011;12611;44.446;26.000;2023-03-14T03:27:11;8.83;;;5.27;;
24425;SDS011;12611;44.446;26.000;2023-03-14T03:29:39;11.20;;;5.60;;
24425;SDS011;12611;44.446;26.000;2023-03-14T03:32:09;16.90;;;7.20;;
24425;SDS011;12611;44.446;26.000;2023-03-14T03:34:38;20.23;;;7.10;;
24425;SDS011;12611;44.446;26.000;2023-03-14T03:37:06;19.83;;;9.00;;
24425;SDS011;12611;44.446;26.000;2023-03-14T03:39:34;16.23;;;7.70;;
24425;SDS011;12611;44.446;26.000;2023-03-14T03:42:02;15.57;;;8.83;;
24425;SDS011;12611;44.446;26.000;2023-03-14T03:44:31;18.20;;;9.17;;
24425;SDS011;12611;44.446;26.000;2023-03-14T03:46:59;21.80;;;10.67;;
24425;SDS011;12611;44.446;26.000;2023-03-14T03:49:30;22.70;;;11.30;;
24425;SDS011;12611;44.446;26.000;2023-03-14T03:51:59;31.50;;;13.20;;
24425;SDS011;12611;44.446;26.000;2023-03-14T03:54:27;29.63;;;13.30;;
24425;SDS011;12611;44.446;26.000;2023-03-14T03:56:56;26.80;;;13.37;;
24425;SDS011;12611;44.446;26.000;2023-03-14T03:59:24;28.97;;;12.77;;
24425;SDS011;12611;44.446;26.000;2023-03-14T04:01:53;28.13;;;13.67;;
24425;SDS011;12611;44.446;26.000;2023-03-14T04:04:22;25.60;;;12.77;;
24425;SDS011;12611;44.446;26.000;2023-03-14T04:06:52;25.97;;;13.30;;
24425;SDS011;12611;44.446;26.000;2023-03-14T04:09:20;22.53;;;11.63;;
24425;SDS011;12611;44.446;26.000;2023-03-14T04:11:48;25.43;;;11.50;;
24425;SDS011;12611;44.446;26.000;2023-03-14T04:14:16;30.37;;;12.33;;
24425;SDS011;12611;44.446;26.000;2023-03-14T04:16:45;22.97;;;11.83;;
24425;SDS011;12611;44.446;26.000;2023-03-14T04:19:13;19.03;;;10.97;;
24425;SDS011;12611;44.446;26.000;2023-03-14T04:21:41;20.33;;;10.43;;
24425;SDS011;12611;44.446;26.000;2023-03-14T04:24:14;23.83;;;11.17;;
24425;SDS011;12611;44.446;26.000;2023-03-14T04:26:43;24.47;;;11.73;;
24425;SDS011;12611;44.446;26.000;2023-03-14T04:29:11;24.73;;;11.30;;
24425;SDS011;12611;44.446;26.000;2023-03-14T04:31:39;20.13;;;11.73;;
24425;SDS011;12611;44.446;26.000;2023-03-14T04:34:08;18.27;;;9.57;;
24425;SDS011;12611;44.446;26.000;2023-03-14T04:36:36;20.77;;;11.07;;
24425;SDS011;12611;44.446;26.000;2023-03-14T04:39:05;19.33;;;9.60;;
24425;SDS011;12611;44.446;26.000;2023-03-14T04:41:35;24.77;;;9.47;;
24425;SDS011;12611;44.446;26.000;2023-03-14T04:44:04;19.80;;;9.13;;
24425;SDS011;12611;44.446;26.000;2023-03-14T04:46:32;25.00;;;8.17;;
24425;SDS011;12611;44.446;26.000;2023-03-14T04:49:00;22.20;;;8.60;;
24425;SDS011;12611;44.446;26.000;2023-03-14T04:51:29;22.97;;;9.07;;
24425;SDS011;12611;44.446;26.000;2023-03-14T04:53:57;26.53;;;8.97;;
24425;SDS011;12611;44.446;26.000;2023-03-14T04:56:25;27.87;;;10.17;;
24425;SDS011;12611;44.446;26.000;2023-03-14T04:58:56;22.67;;;9.37;;
24425;SDS011;12611;44.446;26.000;2023-03-14T05:01:24;25.00;;;9.93;;
24425;SDS011;12611;44.446;26.000;2023-03-14T05:03:53;22.33;;;9.73;;
24425;SDS011;12611;44.446;26.000;2023-03-14T05:06:21;20.40;;;10.00;;
24425;SDS011;12611;44.446;26.000;2023-03-14T05:08:49;21.20;;;8.60;;
24425;SDS011;12611;44.446;26.000;2023-03-14T05:11:18;18.90;;;9.30;;
24425;SDS011;12611;44.446;26.000;2023-03-14T05:13:46;18.80;;;8.57;;
24425;SDS011;12611;44.446;26.000;2023-03-14T05:16:16;23.60;;;9.37;;
24425;SDS011;12611;44.446;26.000;2023-03-14T05:18:44;17.20;;;9.03;;
24425;SDS011;12611;44.446;26.000;2023-03-14T05:21:13;21.43;;;8.87;;
24425;SDS011;12611;44.446;26.000;2023-03-14T05:23:41;19.23;;;8.40;;
24425;SDS011;12611;44.446;26.000;2023-03-14T05:26:09;16.47;;;8.60;;
24425;SDS011;12611;44.446;26.000;2023-03-14T05:28:37;17.63;;;8.67;;
24425;SDS011;12611;44.446;26.000;2023-03-14T05:31:06;26.17;;;10.03;;
24425;SDS011;12611;44.446;26.000;2023-03-14T05:33:36;15.37;;;8.90;;
24425;SDS011;12611;44.446;26.000;2023-03-14T05:36:08;25.77;;;9.73;;
24425;SDS011;12611;44.446;26.000;2023-03-14T05:38:37;24.53;;;9.90;;
24425;SDS011;12611;44.446;26.000;2023-03-14T05:41:05;17.87;;;9.37;;
24425;SDS011;12611;44.446;26.000;2023-03-14T05:43:34;22.83;;;10.43;;
24425;SDS011;12611;44.446;26.000;2023-03-14T05:46:02;18.10;;;8.77;;
24425;SDS011;12611;44.446;26.000;2023-03-14T05:48:31;20.67;;;9.63;;
24425;SDS011;12611;44.446;26.000;2023-03-14T05:51:00;17.47;;;9.43;;
24425;SDS011;12611;44.446;26.000;2023-03-14T05:53:29;22.40;;;11.17;;
24425;SDS011;12611;44.446;26.000;2023-03-14T05:55:57;24.10;;;10.17;;
24425;SDS011;12611;44.446;26.000;2023-03-14T05:58:26;20.50;;;9.77;;
24425;SDS011;12611;44.446;26.000;2023-03-14T06:00:54;23.03;;;10.97;;
24425;SDS011;12611;44.446;26.000;2023-03-14T06:03:22;22.47;;;10.63;;
24425;SDS011;12611;44.446;26.000;2023-03-14T06:05:51;22.90;;;10.00;;
24425;SDS011;12611;44.446;26.000;2023-03-14T06:08:21;23.63;;;10.60;;
24425;SDS011;12611;44.446;26.000;2023-03-14T06:10:49;24.10;;;10.13;;
24425;SDS011;12611;44.446;26.000;2023-03-14T06:13:17;16.70;;;9.03;;
24425;SDS011;12611;44.446;26.000;2023-03-14T06:15:46;18.70;;;8.43;;
24425;SDS011;12611;44.446;26.000;2023-03-14T06:18:14;16.73;;;9.37;;
24425;SDS011;12611;44.446;26.000;2023-03-14T06:20:43;15.93;;;8.93;;
24425;SDS011;12611;44.446;26.000;2023-03-14T06:23:11;16.43;;;8.93;;
24425;SDS011;12611;44.446;26.000;2023-03-14T06:25:41;18.33;;;9.33;;
24425;SDS011;12611;44.446;26.000;2023-03-14T06:28:09;21.77;;;8.70;;
24425;SDS011;12611;44.446;26.000;2023-03-14T06:30:38;15.53;;;7.73;;
24425;SDS011;12611;44.446;26.000;2023-03-14T06:33:06;14.00;;;7.50;;
24425;SDS011;12611;44.446;26.000;2023-03-14T06:35:34;14.77;;;7.13;;
24425;SDS011;12611;44.446;26.000;2023-03-14T06:38:03;16.30;;;7.20;;
24425;SDS011;12611;44.446;26.000;2023-03-14T06:40:31;19.30;;;6.60;;
24425;SDS011;12611;44.446;26.000;2023-03-14T06:43:01;12.77;;;6.57;;
24425;SDS011;12611;44.446;26.000;2023-03-14T06:45:29;11.03;;;6.30;;
24425;SDS011;12611;44.446;26.000;2023-03-14T06:47:58;13.50;;;5.93;;
24425;SDS011;12611;44.446;26.000;2023-03-14T06:50:26;10.50;;;6.10;;
24425;SDS011;12611;44.446;26.000;2023-03-14T06:52:54;12.93;;;5.97;;
24425;SDS011;12611;44.446;26.000;2023-03-14T06:55:23;10.63;;;5.43;;
24425;SDS011;12611;44.446;26.000;2023-03-14T06:57:52;10.68;;;6.43;;
24425;SDS011;12611;44.446;26.000;2023-03-14T07:00:22;11.57;;;6.33;;
24425;SDS011;12611;44.446;26.000;2023-03-14T07:02:51;14.00;;;5.83;;
24425;SDS011;12611;44.446;26.000;2023-03-14T07:05:19;17.63;;;6.50;;
24425;SDS011;12611;44.446;26.000;2023-03-14T07:07:47;10.53;;;5.70;;
24425;SDS011;12611;44.446;26.000;2023-03-14T07:10:16;10.73;;;6.07;;
24425;SDS011;12611;44.446;26.000;2023-03-14T07:12:44;12.33;;;6.10;;
24425;SDS011;12611;44.446;26.000;2023-03-14T07:15:13;9.57;;;5.77;;
24425;SDS011;12611;44.446;26.000;2023-03-14T07:17:47;11.90;;;5.80;;
24425;SDS011;12611;44.446;26.000;2023-03-14T07:20:16;10.87;;;5.43;;
24425;SDS011;12611;44.446;26.000;2023-03-14T07:22:46;13.63;;;5.63;;
24425;SDS011;12611;44.446;26.000;2023-03-14T07:25:16;9.50;;;4.53;;
24425;SDS011;12611;44.446;26.000;2023-03-14T07:27:44;7.43;;;4.60;;
24425;SDS011;12611;44.446;26.000;2023-03-14T07:30:14;13.93;;;5.07;;
24425;SDS011;12611;44.446;26.000;2023-03-14T07:32:42;9.17;;;4.63;;
24425;SDS011;12611;44.446;26.000;2023-03-14T07:35:12;14.83;;;4.30;;
24425;SDS011;12611;44.446;26.000;2023-03-14T07:37:40;9.77;;;4.37;;
24425;SDS011;12611;44.446;26.000;2023-03-14T07:40:09;8.90;;;4.40;;
24425;SDS011;12611;44.446;26.000;2023-03-14T07:42:41;7.00;;;4.20;;
24425;SDS011;12611;44.446;26.000;2023-03-14T07:45:09;12.53;;;4.53;;
24425;SDS011;12611;44.446;26.000;2023-03-14T07:47:38;8.90;;;4.90;;
24425;SDS011;12611;44.446;26.000;2023-03-14T07:50:07;6.87;;;3.83;;
24425;SDS011;12611;44.446;26.000;2023-03-14T07:52:38;10.07;;;3.67;;
24425;SDS011;12611;44.446;26.000;2023-03-14T07:55:06;6.47;;;3.53;;
24425;SDS011;12611;44.446;26.000;2023-03-14T07:57:35;8.70;;;4.83;;
24425;SDS011;12611;44.446;26.000;2023-03-14T08:00:04;6.53;;;4.13;;
24425;SDS011;12611;44.446;26.000;2023-03-14T08:02:34;8.17;;;4.43;;
24425;SDS011;12611;44.446;26.000;2023-03-14T08:05:03;11.37;;;4.93;;
24425;SDS011;12611;44.446;26.000;2023-03-14T08:07:31;7.30;;;4.33;;
24425;SDS011;12611;44.446;26.000;2023-03-14T08:10:01;9.60;;;5.07;;
24425;SDS011;12611;44.446;26.000;2023-03-14T08:12:30;8.30;;;4.63;;
24425;SDS011;12611;44.446;26.000;2023-03-14T08:14:59;10.60;;;4.97;;
24425;SDS011;12611;44.446;26.000;2023-03-14T08:17:27;14.47;;;4.30;;
24425;SDS011;12611;44.446;26.000;2023-03-14T08:19:55;7.73;;;4.70;;
24425;SDS011;12611;44.446;26.000;2023-03-14T08:22:24;7.43;;;4.30;;
24425;SDS011;12611;44.446;26.000;2023-03-14T08:24:52;7.23;;;4.10;;
24425;SDS011;12611;44.446;26.000;2023-03-14T08:27:22;6.83;;;4.37;;
24425;SDS011;12611;44.446;26.000;2023-03-14T08:29:50;8.93;;;4.53;;
24425;SDS011;12611;44.446;26.000;2023-03-14T08:32:18;10.90;;;4.30;;
24425;SDS011;12611;44.446;26.000;2023-03-14T08:34:48;10.07;;;4.63;;
24425;SDS011;12611;44.446;26.000;2023-03-14T08:37:17;7.13;;;4.43;;
24425;SDS011;12611;44.446;26.000;2023-03-14T08:39:52;11.47;;;4.53;;
24425;SDS011;12611;44.446;26.000;2023-03-14T08:42:22;8.73;;;4.27;;
24425;SDS011;12611;44.446;26.000;2023-03-14T08:44:51;7.67;;;4.30;;
24425;SDS011;12611;44.446;26.000;2023-03-14T08:47:20;10.07;;;4.73;;
24425;SDS011;12611;44.446;26.000;2023-03-14T08:49:48;9.80;;;4.50;;
24425;SDS011;12611;44.446;26.000;2023-03-14T08:52:17;10.13;;;4.87;;
24425;SDS011;12611;44.446;26.000;2023-03-14T08:54:45;7.53;;;4.53;;
24425;SDS011;12611;44.446;26.000;2023-03-14T08:57:14;7.07;;;3.87;;
24425;SDS011;12611;44.446;26.000;2023-03-14T08:59:43;7.33;;;4.23;;
24425;SDS011;12611;44.446;26.000;2023-03-14T09:02:12;15.87;;;5.53;;
24425;SDS011;12611;44.446;26.000;2023-03-14T09:04:40;14.00;;;4.90;;
24425;SDS011;12611;44.446;26.000;2023-03-14T09:07:09;9.47;;;4.57;;
24425;SDS011;12611;44.446;26.000;2023-03-14T09:09:37;13.10;;;5.30;;
24425;SDS011;12611;44.446;26.000;2023-03-14T09:12:06;11.63;;;4.83;;
24425;SDS011;12611;44.446;26.000;2023-03-14T09:14:35;11.40;;;5.57;;
24425;SDS011;12611;44.446;26.000;2023-03-14T09:17:05;7.47;;;4.60;;
24425;SDS011;12611;44.446;26.000;2023-03-14T09:19:34;13.07;;;5.40;;
24425;SDS011;12611;44.446;26.000;2023-03-14T09:22:02;9.87;;;5.37;;
24425;SDS011;12611;44.446;26.000;2023-03-14T09:24:31;13.60;;;5.83;;
24425;SDS011;12611;44.446;26.000;2023-03-14T09:26:59;10.00;;;5.00;;
24425;SDS011;12611;44.446;26.000;2023-03-14T09:29:28;10.40;;;5.20;;
24425;SDS011;12611;44.446;26.000;2023-03-14T09:31:57;9.80;;;5.60;;
24425;SDS011;12611;44.446;26.000;2023-03-14T09:34:27;11.30;;;5.03;;
24425;SDS011;12611;44.446;26.000;2023-03-14T09:36:56;8.90;;;4.47;;
24425;SDS011;12611;44.446;26.000;2023-03-14T09:39:24;11.13;;;4.80;;
24425;SDS011;12611;44.446;26.000;2023-03-14T09:41:52;8.47;;;4.70;;
24425;SDS011;12611;44.446;26.000;2023-03-14T09:44:25;12.43;;;4.43;;
24425;SDS011;12611;44.446;26.000;2023-03-14T09:46:57;8.53;;;4.60;;
24425;SDS011;12611;44.446;26.000;2023-03-14T09:49:32;10.63;;;4.33;;
24425;SDS011;12611;44.446;26.000;2023-03-14T09:52:04;9.17;;;4.20;;
24425;SDS011;12611;44.446;26.000;2023-03-14T09:54:40;9.23;;;4.33;;
24425;SDS011;12611;44.446;26.000;2023-03-14T09:57:11;9.77;;;5.67;;
24425;SDS011;12611;44.446;26.000;2023-03-14T09:59:42;10.43;;;3.90;;
24425;SDS011;12611;44.446;26.000;2023-03-14T10:02:14;7.33;;;4.07;;
24425;SDS011;12611;44.446;26.000;2023-03-14T10:04:46;11.00;;;4.33;;
24425;SDS011;12611;44.446;26.000;2023-03-14T10:07:16;7.60;;;3.47;;
24425;SDS011;12611;44.446;26.000;2023-03-14T10:09:48;8.37;;;4.30;;
24425;SDS011;12611;44.446;26.000;2023-03-14T10:12:19;6.93;;;4.03;;
24425;SDS011;12611;44.446;26.000;2023-03-14T10:14:57;6.57;;;3.20;;
24425;SDS011;12611;44.446;26.000;2023-03-14T10:17:37;9.57;;;3.60;;
24425;SDS011;12611;44.446;26.000;2023-03-14T10:20:15;10.10;;;3.53;;
24425;SDS011;12611;44.446;26.000;2023-03-14T10:22:59;9.63;;;4.20;;
24425;SDS011;12611;44.446;26.000;2023-03-14T10:25:28;9.80;;;3.53;;
24425;SDS011;12611;44.446;26.000;2023-03-14T10:27:58;5.20;;;2.53;;
24425;SDS011;12611;44.446;26.000;2023-03-14T10:30:28;7.40;;;2.87;;
24425;SDS011;12611;44.446;26.000;2023-03-14T10:33:07;6.27;;;2.23;;
24425;SDS011;12611;44.446;26.000;2023-03-14T10:35:39;6.47;;;2.37;;
24425;SDS011;12611;44.446;26.000;2023-03-14T10:38:10;6.77;;;2.47;;
24425;SDS011;12611;44.446;26.000;2023-03-14T10:40:41;5.27;;;2.13;;
24425;SDS011;12611;44.446;26.000;2023-03-14T10:43:16;6.20;;;2.10;;
24425;SDS011;12611;44.446;26.000;2023-03-14T10:45:51;5.27;;;1.83;;
24425;SDS011;12611;44.446;26.000;2023-03-14T10:48:25;5.33;;;2.00;;
24425;SDS011;12611;44.446;26.000;2023-03-14T10:51:03;6.27;;;1.77;;
24425;SDS011;12611;44.446;26.000;2023-03-14T10:53:38;4.73;;;1.80;;
24425;SDS011;12611;44.446;26.000;2023-03-14T10:56:11;6.80;;;1.93;;
24425;SDS011;12611;44.446;26.000;2023-03-14T10:58:41;5.30;;;2.03;;
24425;SDS011;12611;44.446;26.000;2023-03-14T11:01:17;3.37;;;1.70;;
24425;SDS011;12611;44.446;26.000;2023-03-14T11:03:56;5.07;;;1.80;;
24425;SDS011;12611;44.446;26.000;2023-03-14T11:06:32;7.07;;;2.57;;
24425;SDS011;12611;44.446;26.000;2023-03-14T11:09:10;9.13;;;2.97;;
24425;SDS011;12611;44.446;26.000;2023-03-14T11:11:46;3.43;;;1.93;;
24425;SDS011;12611;44.446;26.000;2023-03-14T11:14:20;5.67;;;1.73;;
24425;SDS011;12611;44.446;26.000;2023-03-14T11:16:54;6.67;;;1.63;;
24425;SDS011;12611;44.446;26.000;2023-03-14T11:19:30;3.63;;;1.50;;
24425;SDS011;12611;44.446;26.000;2023-03-14T11:22:21;3.72;;;1.60;;
24425;SDS011;12611;44.446;26.000;2023-03-14T11:25:13;5.20;;;1.53;;
24425;SDS011;12611;44.446;26.000;2023-03-14T11:27:52;5.20;;;1.30;;
24425;SDS011;12611;44.446;26.000;2023-03-14T11:30:32;5.83;;;1.30;;
24425;SDS011;12611;44.446;26.000;2023-03-14T11:33:04;5.10;;;1.13;;
24425;SDS011;12611;44.446;26.000;2023-03-14T11:35:42;5.50;;;1.43;;
24425;SDS011;12611;44.446;26.000;2023-03-14T11:38:19;7.43;;;1.30;;
24425;SDS011;12611;44.446;26.000;2023-03-14T11:40:57;7.70;;;1.60;;
24425;SDS011;12611;44.446;26.000;2023-03-14T11:43:28;5.27;;;1.40;;
24425;SDS011;12611;44.446;26.000;2023-03-14T11:46:01;2.63;;;1.20;;
24425;SDS011;12611;44.446;26.000;2023-03-14T11:48:35;2.40;;;1.20;;
24425;SDS011;12611;44.446;26.000;2023-03-14T11:51:12;4.33;;;1.30;;
24425;SDS011;12611;44.446;26.000;2023-03-14T11:53:50;2.80;;;1.23;;
24425;SDS011;12611;44.446;26.000;2023-03-14T11:56:29;4.10;;;1.17;;
24425;SDS011;12611;44.446;26.000;2023-03-14T11:59:03;3.53;;;1.40;;
24425;SDS011;12611;44.446;26.000;2023-03-14T12:01:42;4.50;;;1.53;;
24425;SDS011;12611;44.446;26.000;2023-03-14T12:04:21;5.53;;;1.63;;
24425;SDS011;12611;44.446;26.000;2023-03-14T12:07:12;2.47;;;1.23;;
24425;SDS011;12611;44.446;26.000;2023-03-14T12:09:48;2.50;;;1.30;;
24425;SDS011;12611;44.446;26.000;2023-03-14T12:12:18;2.13;;;1.10;;
24425;SDS011;12611;44.446;26.000;2023-03-14T12:14:52;3.43;;;1.47;;
24425;SDS011;12611;44.446;26.000;2023-03-14T12:17:23;2.40;;;1.20;;
24425;SDS011;12611;44.446;26.000;2023-03-14T12:20:00;7.13;;;1.67;;
24425;SDS011;12611;44.446;26.000;2023-03-14T12:22:33;7.17;;;1.00;;
24425;SDS011;12611;44.446;26.000;2023-03-14T12:25:15;3.17;;;1.63;;
24425;SDS011;12611;44.446;26.000;2023-03-14T12:27:48;2.13;;;1.10;;
24425;SDS011;12611;44.446;26.000;2023-03-14T12:30:32;4.53;;;1.63;;
24425;SDS011;12611;44.446;26.000;2023-03-14T12:33:11;3.80;;;2.03;;
24425;SDS011;12611;44.446;26.000;2023-03-14T12:36:02;2.80;;;1.20;;
24425;SDS011;12611;44.446;26.000;2023-03-14T12:38:39;4.60;;;1.40;;
24425;SDS011;12611;44.446;26.000;2023-03-14T12:41:19;2.57;;;1.00;;
24425;SDS011;12611;44.446;26.000;2023-03-14T12:43:50;3.15;;;1.10;;
24425;SDS011;12611;44.446;26.000;2023-03-14T12:46:21;3.00;;;1.40;;
24425;SDS011;12611;44.446;26.000;2023-03-14T12:48:54;9.38;;;1.80;;
24425;SDS011;12611;44.446;26.000;2023-03-14T12:51:34;5.70;;;1.50;;
24425;SDS011;12611;44.446;26.000;2023-03-14T12:54:10;9.48;;;1.30;;
24425;SDS011;12611;44.446;26.000;2023-03-14T12:56:52;2.33;;;1.00;;
24425;SDS011;12611;44.446;26.000;2023-03-14T12:59:45;3.28;;;0.80;;
24425;SDS011;12611;44.446;26.000;2023-03-14T13:02:22;1.80;;;0.90;;
24425;SDS011;12611;44.446;26.000;2023-03-14T13:04:54;5.63;;;1.05;;
24425;SDS011;12611;44.446;26.000;2023-03-14T13:07:34;6.65;;;1.30;;
24425;SDS011;12611;44.446;26.000;2023-03-14T13:10:23;1.77;;;0.80;;
24425;SDS011;12611;44.446;26.000;2023-03-14T13:12:55;1.85;;;1.27;;
24425;SDS011;12611;44.446;26.000;2023-03-14T13:15:29;2.38;;;0.88;;
24425;SDS011;12611;44.446;26.000;2023-03-14T13:18:01;1.63;;;0.82;;
24425;SDS011;12611;44.446;26.000;2023-03-14T13:20:31;0.98;;;0.70;;
24425;SDS011;12611;44.446;26.000;2023-03-14T13:23:03;1.98;;;0.80;;
24425;SDS011;12611;44.446;26.000;2023-03-14T13:25:32;3.40;;;1.00;;
24425;SDS011;12611;44.446;26.000;2023-03-14T13:28:03;2.67;;;1.00;;
24425;SDS011;12611;44.446;26.000;2023-03-14T13:30:39;6.32;;;0.90;;
24425;SDS011;12611;44.446;26.000;2023-03-14T13:33:17;4.07;;;0.80;;
24425;SDS011;12611;44.446;26.000;2023-03-14T13:35:48;13.52;;;1.48;;
24425;SDS011;12611;44.446;26.000;2023-03-14T13:38:22;2.28;;;0.93;;
24425;SDS011;12611;44.446;26.000;2023-03-14T13:40:53;4.85;;;1.27;;
24425;SDS011;12611;44.446;26.000;2023-03-14T13:43:28;6.57;;;1.10;;
24425;SDS011;12611;44.446;26.000;2023-03-14T13:46:01;2.70;;;1.13;;
24425;SDS011;12611;44.446;26.000;2023-03-14T13:48:33;3.63;;;1.40;;
24425;SDS011;12611;44.446;26.000;2023-03-14T13:51:07;4.45;;;1.20;;
24425;SDS011;12611;44.446;26.000;2023-03-14T13:53:44;5.80;;;0.80;;
24425;SDS011;12611;44.446;26.000;2023-03-14T13:56:12;3.97;;;1.58;;
24425;SDS011;12611;44.446;26.000;2023-03-14T13:58:42;3.85;;;0.98;;
24425;SDS011;12611;44.446;26.000;2023-03-14T14:01:12;1.95;;;0.90;;
24425;SDS011;12611;44.446;26.000;2023-03-14T14:03:44;1.10;;;0.50;;
24425;SDS011;12611;44.446;26.000;2023-03-14T14:06:26;0.90;;;0.55;;
24425;SDS011;12611;44.446;26.000;2023-03-14T14:08:59;4.95;;;1.40;;
24425;SDS011;12611;44.446;26.000;2023-03-14T14:11:37;5.07;;;0.85;;
24425;SDS011;12611;44.446;26.000;2023-03-14T14:14:21;6.72;;;1.08;;
24425;SDS011;12611;44.446;26.000;2023-03-14T14:16:54;4.53;;;0.90;;
24425;SDS011;12611;44.446;26.000;2023-03-14T14:19:24;4.43;;;0.90;;
24425;SDS011;12611;44.446;26.000;2023-03-14T14:21:55;3.13;;;0.75;;
24425;SDS011;12611;44.446;26.000;2023-03-14T14:24:25;2.38;;;0.80;;
24425;SDS011;12611;44.446;26.000;2023-03-14T14:26:58;6.90;;;0.82;;
24425;SDS011;12611;44.446;26.000;2023-03-14T14:29:31;3.42;;;0.93;;
24425;SDS011;12611;44.446;26.000;2023-03-14T14:32:01;2.38;;;0.93;;
24425;SDS011;12611;44.446;26.000;2023-03-14T14:34:37;0.98;;;0.50;;
24425;SDS011;12611;44.446;26.000;2023-03-14T14:37:15;1.20;;;0.70;;
24425;SDS011;12611;44.446;26.000;2023-03-14T14:39:52;5.93;;;0.85;;
24425;SDS011;12611;44.446;26.000;2023-03-14T14:42:24;2.08;;;0.80;;
24425;SDS011;12611;44.446;26.000;2023-03-14T14:44:56;1.98;;;1.00;;
24425;SDS011;12611;44.446;26.000;2023-03-14T14:47:26;1.70;;;0.60;;
24425;SDS011;12611;44.446;26.000;2023-03-14T14:49:58;3.33;;;0.82;;
24425;SDS011;12611;44.446;26.000;2023-03-14T14:52:33;3.95;;;0.90;;